Arrowsmith, Illinois
Current Conditions -  °F | °C
As of 11:56 PM on Sunday 21 Dec 2014 (Local Time) from KBMI Reporting Station
Overcast Overcast  
Wind Chill: -4°   Ceiling: 4300
Heat Index:   Visibility: 7mi
Dew Point: -1°   Wind: 13mph
Humidity: 89%   Direction: 150°SSE
Pressure: 29.98"   Gusts: NA
Location:  40.45°N, 88.63°W
Report Text: KBMI 220556Z AUTO 15011KT 7SM OVC043 01/M01 A2998 RMK AO2 56015 T00111005 10022 20005 400380000 SLP163
Loading
Personal Weather Stations






























Interactive Weather Map New forecast layout! Learn more

10-Day Weather Forecast

Advertisements
Track Severe Weather on mobile